createdAt,value
2018-04-26T00:01:55.781Z,97711.05
2018-04-26T00:04:23.369Z,97716.91
2018-04-26T00:06:50.931Z,97714.40
2018-04-26T00:09:18.421Z,97716.17
2018-04-26T00:11:45.881Z,97717.39
2018-04-26T00:14:13.926Z,97714.73
2018-04-26T00:16:41.377Z,97710.94
2018-04-26T00:19:08.851Z,97706.95
2018-04-26T00:21:36.318Z,97706.58
2018-04-26T00:24:03.884Z,97706.77
2018-04-26T00:26:31.540Z,97700.36
2018-04-26T00:28:59.603Z,97701.59
2018-04-26T00:31:27.119Z,97699.77
2018-04-26T00:33:54.560Z,97703.83
2018-04-26T00:36:22.061Z,97701.95
2018-04-26T00:38:49.617Z,97698.84
2018-04-26T00:41:17.127Z,97697.09
2018-04-26T00:43:44.677Z,97702.06
2018-04-26T00:46:12.174Z,97693.58
2018-04-26T00:48:39.620Z,97694.78
2018-04-26T00:51:07.173Z,97693.30
2018-04-26T00:53:34.648Z,97695.59
2018-04-26T00:56:02.136Z,97693.83
2018-04-26T00:58:29.617Z,97706.24
2018-04-26T01:00:58.258Z,97709.41
2018-04-26T01:03:25.806Z,97716.95
2018-04-26T01:05:53.267Z,97725.21
2018-04-26T01:08:20.761Z,97721.80
2018-04-26T01:10:48.278Z,97725.64
2018-04-26T01:13:15.833Z,97730.80
2018-04-26T01:15:43.329Z,97730.51
2018-04-26T01:18:11.005Z,97732.52
2018-04-26T01:20:38.463Z,97730.92
2018-04-26T01:23:05.902Z,97735.55
2018-04-26T01:25:33.441Z,97738.28
2018-04-26T01:28:01.692Z,97734.15
2018-04-26T01:30:29.156Z,97740.58
2018-04-26T01:32:56.618Z,97744.45
2018-04-26T01:35:24.127Z,97745.92
2018-04-26T01:37:51.590Z,97751.92
2018-04-26T01:40:19.165Z,97753.91
2018-04-26T01:42:46.619Z,97750.06
2018-04-26T01:45:14.742Z,97746.53
2018-04-26T01:47:42.174Z,97754.22
2018-04-26T01:50:09.702Z,97743.37
2018-04-26T01:52:37.296Z,97743.06
2018-04-26T01:55:04.904Z,97744.92
2018-04-26T01:57:32.434Z,97762.63
2018-04-26T01:59:59.881Z,97760.80
2018-04-26T02:02:27.360Z,97757.86
2018-04-26T02:04:54.874Z,97760.80
2018-04-26T02:07:22.331Z,97763.44
2018-04-26T02:09:49.755Z,97771.81
2018-04-26T02:12:17.253Z,97771.24
2018-04-26T02:14:44.720Z,97766.72
2018-04-26T02:17:12.253Z,97779.58
2018-04-26T02:19:39.711Z,97779.53
2018-04-26T02:22:07.191Z,97774.89
2018-04-26T02:24:34.653Z,97777.50
2018-04-26T02:27:02.191Z,97766.22
2018-04-26T02:29:29.649Z,97773.45
2018-04-26T02:31:57.120Z,97776.37
2018-04-26T02:34:24.652Z,97779.11
2018-04-26T02:36:52.095Z,97781.38
2018-04-26T02:39:19.646Z,97775.69
2018-04-26T02:41:47.132Z,97776.23
2018-04-26T02:44:14.613Z,97776.19
2018-04-26T02:46:42.054Z,97784.00
2018-04-26T02:49:10.292Z,97785.60
2018-04-26T02:51:37.777Z,97764.56
2018-04-26T02:54:05.239Z,97755.58
2018-04-26T02:56:32.888Z,97759.87
2018-04-26T02:59:00.320Z,97775.45
2018-04-26T03:01:27.937Z,97776.89
2018-04-26T03:03:55.480Z,97784.84
2018-04-26T03:06:23.032Z,97786.53
2018-04-26T03:08:50.602Z,97777.11
2018-04-26T03:11:18.331Z,97778.07
2018-04-26T03:13:45.763Z,97787.92
2018-04-26T03:16:13.224Z,97787.17
2018-04-26T03:18:40.765Z,97785.72
2018-04-26T03:21:08.279Z,97796.32
2018-04-26T03:23:35.742Z,97794.22
2018-04-26T03:26:03.208Z,97795.27
2018-04-26T03:28:30.642Z,97789.66
2018-04-26T03:30:58.124Z,97803.67
2018-04-26T03:33:25.681Z,97809.77
2018-04-26T03:35:53.126Z,97805.87
2018-04-26T03:38:20.604Z,97815.92
2018-04-26T03:40:48.132Z,97814.86
2018-04-26T03:43:15.690Z,97817.12
2018-04-26T03:45:43.140Z,97819.59
2018-04-26T03:48:10.618Z,97817.65
2018-04-26T03:50:38.717Z,97818.55
2018-04-26T03:53:06.262Z,97816.51
2018-04-26T03:55:33.869Z,97816.48
2018-04-26T03:58:01.530Z,97813.51
2018-04-26T04:00:40.844Z,97811.73
2018-04-26T04:06:15.146Z,97821.84
2018-04-26T04:08:42.619Z,97825.59
2018-04-26T04:11:10.080Z,97829.39
2018-04-26T04:13:38.163Z,97836.34
2018-04-26T04:16:05.691Z,97832.88
2018-04-26T04:18:33.192Z,97831.59
2018-04-26T04:21:00.683Z,97836.19
2018-04-26T04:23:28.231Z,97837.34
2018-04-26T04:25:55.812Z,97837.37
2018-04-26T04:28:23.376Z,97835.90
2018-04-26T04:30:50.934Z,97833.69
2018-04-26T04:33:18.470Z,97831.72
2018-04-26T04:35:45.934Z,97826.97
2018-04-26T04:38:13.723Z,97831.02
2018-04-26T04:40:41.288Z,97836.92
2018-04-26T04:43:08.781Z,97840.16
2018-04-26T04:45:36.215Z,97837.11
2018-04-26T04:48:03.668Z,97845.16
2018-04-26T04:50:31.124Z,97845.85
2018-04-26T04:52:58.564Z,97849.42
2018-04-26T04:55:26.032Z,97851.86
2018-04-26T04:57:53.505Z,97857.13
2018-04-26T05:00:20.987Z,97866.00
2018-04-26T05:02:48.468Z,97865.92
2018-04-26T05:05:16.126Z,97866.61
2018-04-26T05:07:43.698Z,97866.16
2018-04-26T05:10:11.250Z,97866.87
2018-04-26T05:12:38.767Z,97867.25
2018-04-26T05:15:06.237Z,97875.69
2018-04-26T05:17:33.674Z,97868.73
2018-04-26T05:20:01.248Z,97876.80
2018-04-26T05:22:28.708Z,97874.28
2018-04-26T05:24:56.215Z,97878.25
2018-04-26T05:27:23.715Z,97878.50
2018-04-26T05:29:51.165Z,97875.09
2018-04-26T05:32:18.674Z,97885.86
2018-04-26T05:34:46.120Z,97883.02
2018-04-26T05:37:14.197Z,97880.99
2018-04-26T05:39:41.696Z,97879.61
2018-04-26T05:42:09.279Z,97870.95
2018-04-26T05:44:36.819Z,97873.27
2018-04-26T05:47:04.300Z,97872.56
2018-04-26T05:49:31.792Z,97875.89
2018-04-26T05:51:59.283Z,97872.89
2018-04-26T05:54:26.751Z,97883.30
2018-04-26T05:56:54.282Z,97875.73
2018-04-26T05:59:21.763Z,97880.81
2018-04-26T06:01:49.245Z,97891.98
2018-04-26T06:04:16.753Z,97894.42
2018-04-26T06:06:44.434Z,97897.77
2018-04-26T06:09:12.309Z,97897.22
2018-04-26T06:11:40.205Z,97900.66
2018-04-26T06:14:07.716Z,97907.52
2018-04-26T06:16:35.603Z,97908.70
2018-04-26T06:19:03.118Z,97905.36
2018-04-26T06:21:30.700Z,97918.63
2018-04-26T06:23:58.313Z,97915.38
2018-04-26T06:26:25.894Z,97920.70
2018-04-26T06:28:53.531Z,97918.14
2018-04-26T06:31:20.989Z,97912.69
2018-04-26T06:33:48.541Z,97907.95
2018-04-26T06:36:16.132Z,97910.47
2018-04-26T06:38:43.665Z,97915.70
2018-04-26T06:41:11.214Z,97919.26
2018-04-26T06:43:38.721Z,97920.62
2018-04-26T06:46:06.313Z,97924.94
2018-04-26T06:48:34.674Z,97923.90
2018-04-26T06:51:02.121Z,97918.54
2018-04-26T06:53:29.621Z,97926.78
2018-04-26T06:55:57.037Z,97926.66
2018-04-26T06:58:24.599Z,97917.90
2018-04-26T07:00:52.108Z,97917.50
2018-04-26T07:03:20.265Z,97928.14
2018-04-26T07:05:48.594Z,97923.50
2018-04-26T07:08:16.120Z,97935.53
2018-04-26T07:10:43.580Z,97928.42
2018-04-26T07:13:11.127Z,97932.91
2018-04-26T07:15:38.632Z,97941.73
2018-04-26T07:18:06.159Z,97942.39
2018-04-26T07:20:33.664Z,97937.27
2018-04-26T07:23:01.151Z,97937.55
2018-04-26T07:25:29.299Z,97943.58
2018-04-26T07:27:56.833Z,97941.48
2018-04-26T07:30:24.380Z,97942.27
2018-04-26T07:32:51.958Z,97946.67
2018-04-26T07:35:19.444Z,97940.68
2018-04-26T07:37:46.918Z,97950.28
2018-04-26T07:40:14.507Z,97949.88
2018-04-26T07:42:41.972Z,97956.53
2018-04-26T07:45:09.498Z,97959.69
2018-04-26T07:47:37.055Z,97964.66
2018-04-26T07:50:04.587Z,97966.55
2018-04-26T07:52:32.089Z,97972.31
2018-04-26T07:55:02.161Z,97978.06
2018-04-26T07:57:29.699Z,97976.16
2018-04-26T07:59:57.246Z,97987.59
2018-04-26T08:02:24.856Z,97982.80
2018-04-26T08:04:52.461Z,97983.97
2018-04-26T08:07:20.075Z,97979.56
2018-04-26T08:09:47.516Z,97983.88
2018-04-26T08:12:14.986Z,97981.78
2018-04-26T08:14:42.567Z,97992.77
2018-04-26T08:17:10.101Z,97987.40
2018-04-26T08:19:37.671Z,97986.89
2018-04-26T08:22:05.455Z,97996.00
2018-04-26T08:24:33.814Z,97988.78
2018-04-26T08:27:01.780Z,97987.84
2018-04-26T08:29:29.290Z,97997.75
2018-04-26T08:31:57.026Z,97999.23
2018-04-26T08:34:25.291Z,98002.02
2018-04-26T08:36:53.088Z,97999.30
2018-04-26T08:39:20.539Z,98006.71
2018-04-26T08:41:48.321Z,98006.41
2018-04-26T08:44:16.154Z,98000.44
2018-04-26T08:46:43.652Z,98006.81
2018-04-26T08:49:11.109Z,98011.52
2018-04-26T08:51:38.721Z,98011.87
2018-04-26T08:54:06.239Z,98009.67
2018-04-26T08:56:34.058Z,98012.63
2018-04-26T08:59:01.518Z,98014.92
2018-04-26T09:01:28.991Z,98014.83
2018-04-26T09:03:56.460Z,98014.44
2018-04-26T09:06:24.160Z,98010.04
2018-04-26T09:08:51.849Z,98002.38
2018-04-26T09:11:19.342Z,98011.45
2018-04-26T09:13:46.804Z,98002.67
2018-04-26T09:16:14.448Z,98008.22
2018-04-26T09:18:42.027Z,98007.36
2018-04-26T09:21:09.615Z,98007.88
2018-04-26T09:23:37.202Z,98007.11
2018-04-26T09:26:04.671Z,98013.13
2018-04-26T09:28:32.226Z,98012.57
2018-04-26T09:30:59.688Z,98011.06
2018-04-26T09:33:27.166Z,98005.06
2018-04-26T09:35:54.734Z,98005.50
2018-04-26T09:38:22.263Z,98010.11
2018-04-26T09:40:49.708Z,98014.95
2018-04-26T09:43:17.187Z,98019.48
2018-04-26T09:45:44.653Z,98026.64
2018-04-26T09:48:12.118Z,98025.86
2018-04-26T09:50:39.626Z,98022.68
2018-04-26T09:53:07.129Z,98017.73
2018-04-26T09:55:34.688Z,98014.09
2018-04-26T09:58:02.300Z,98022.80
2018-04-26T10:00:29.787Z,98012.50
2018-04-26T10:02:57.942Z,98005.39
2018-04-26T10:05:30.813Z,98005.73
2018-04-26T10:07:58.842Z,98006.31
2018-04-26T10:10:26.652Z,98011.47
2018-04-26T10:12:54.128Z,98002.92
2018-04-26T10:15:21.614Z,98007.89
2018-04-26T10:17:49.144Z,98008.08
2018-04-26T10:20:16.760Z,97995.00
2018-04-26T10:22:45.335Z,98001.27
2018-04-26T10:25:12.750Z,97996.24
2018-04-26T10:27:40.303Z,97995.12
2018-04-26T10:30:07.745Z,97995.48
2018-04-26T10:32:35.945Z,97998.27
2018-04-26T10:35:03.469Z,97999.14
2018-04-26T10:37:30.948Z,97995.25
2018-04-26T10:39:58.455Z,97996.75
2018-04-26T10:42:26.248Z,97991.22
2018-04-26T10:44:53.671Z,97984.77
2018-04-26T10:47:21.185Z,97982.27
2018-04-26T10:49:48.690Z,97978.41
2018-04-26T10:52:16.147Z,97969.73
2018-04-26T10:54:44.690Z,97967.44
2018-04-26T10:57:12.142Z,97962.91
2018-04-26T10:59:39.776Z,97954.73
2018-04-26T11:02:07.247Z,97957.82
2018-04-26T11:04:34.718Z,97960.94
2018-04-26T11:07:02.219Z,97949.83
2018-04-26T11:09:29.671Z,97946.48
2018-04-26T11:11:57.160Z,97958.38
2018-04-26T11:14:24.660Z,97954.94
2018-04-26T11:16:52.220Z,97942.35
2018-04-26T11:19:19.776Z,97939.78
2018-04-26T11:21:47.468Z,97939.96
2018-04-26T11:24:14.922Z,97932.13
2018-04-26T11:26:42.378Z,97941.93
2018-04-26T11:29:09.824Z,97930.08
2018-04-26T11:31:37.373Z,97921.27
2018-04-26T11:34:04.823Z,97925.70
2018-04-26T11:36:32.305Z,97921.13
2018-04-26T11:39:00.064Z,97923.67
2018-04-26T11:41:27.953Z,97925.43
2018-04-26T11:43:55.471Z,97919.52
2018-04-26T11:46:22.940Z,97923.76
2018-04-26T11:48:50.657Z,97918.94
2018-04-26T11:51:18.167Z,97921.05
2018-04-26T11:53:46.414Z,97927.66
2018-04-26T11:56:14.255Z,97922.48
2018-04-26T11:58:41.675Z,97927.73
2018-04-26T12:01:09.144Z,97923.61
2018-04-26T12:03:37.210Z,97932.16
2018-04-26T12:06:04.701Z,97928.70
2018-04-26T12:08:32.803Z,97932.77
2018-04-26T12:11:00.410Z,97932.23
2018-04-26T12:13:27.982Z,97923.14
2018-04-26T12:15:55.577Z,97930.53
2018-04-26T12:18:23.067Z,97927.47
2018-04-26T12:20:50.670Z,97931.17
2018-04-26T12:23:18.134Z,97922.06
2018-04-26T12:25:45.673Z,97923.69
2018-04-26T12:28:13.150Z,97924.08
2018-04-26T12:30:40.783Z,97926.30
2018-04-26T12:33:08.645Z,97929.39
2018-04-26T12:35:36.122Z,97925.86
2018-04-26T12:38:03.589Z,97922.42
2018-04-26T12:40:31.059Z,97920.05
2018-04-26T12:42:58.536Z,97922.63
2018-04-26T12:45:26.026Z,97920.17
2018-04-26T12:47:53.567Z,97921.36
2018-04-26T12:50:21.046Z,97918.39
2018-04-26T12:52:49.298Z,97915.70
2018-04-26T12:55:16.759Z,97917.06
2018-04-26T12:57:44.273Z,97911.19
2018-04-26T13:00:11.733Z,97923.72
2018-04-26T13:02:39.313Z,97925.48
2018-04-26T13:05:06.827Z,97919.56
2018-04-26T13:07:35.149Z,97916.20
2018-04-26T13:10:02.708Z,97912.16
2018-04-26T13:12:30.215Z,97905.05
2018-04-26T13:14:58.953Z,97906.29
2018-04-26T13:17:28.250Z,97908.43
2018-04-26T13:19:55.659Z,97909.12
2018-04-26T13:22:23.198Z,97911.52
2018-04-26T13:24:51.245Z,97905.83
2018-04-26T13:27:18.838Z,97905.06
2018-04-26T13:29:46.324Z,97901.16
2018-04-26T13:32:14.576Z,97907.63
2018-04-26T13:34:42.901Z,97906.15
2018-04-26T13:37:10.488Z,97903.81
2018-04-26T13:39:38.040Z,97906.73
2018-04-26T13:42:05.483Z,97901.97
2018-04-26T13:44:32.951Z,97904.35
2018-04-26T13:47:00.500Z,97900.27
2018-04-26T13:49:28.028Z,97897.14
2018-04-26T13:51:55.524Z,97909.32
2018-04-26T13:54:23.091Z,97898.80
2018-04-26T13:56:51.716Z,97887.75
2018-04-26T13:59:19.349Z,97895.20
2018-04-26T14:01:46.949Z,97893.37
2018-04-26T14:04:15.211Z,97884.99
2018-04-26T14:06:43.170Z,97883.89
2018-04-26T14:09:10.654Z,97890.00
2018-04-26T14:11:38.988Z,97895.88
2018-04-26T14:14:06.595Z,97890.78
2018-04-26T14:16:34.306Z,97880.46
2018-04-26T14:19:02.012Z,97875.63
2018-04-26T14:21:29.547Z,97870.34
2018-04-26T14:23:57.887Z,97885.14
2018-04-26T14:26:26.019Z,97890.34
2018-04-26T14:28:53.637Z,97896.23
2018-04-26T14:31:21.871Z,97889.91
2018-04-26T14:33:49.346Z,97887.97
2018-04-26T14:36:16.876Z,97885.89
2018-04-26T14:38:44.355Z,97882.52
2018-04-26T14:41:11.878Z,97877.10
2018-04-26T14:43:39.737Z,97884.49
2018-04-26T14:46:07.593Z,97883.64
2018-04-26T14:48:36.273Z,97891.94
2018-04-26T14:51:03.848Z,97891.03
2018-04-26T14:53:31.348Z,97890.77
2018-04-26T14:55:59.045Z,97889.86
2018-04-26T14:58:26.951Z,97884.89
2018-04-26T15:00:54.416Z,97878.12
2018-04-26T15:03:22.764Z,97879.34
2018-04-26T15:05:50.353Z,97885.33
2018-04-26T15:08:17.793Z,97877.58
2018-04-26T15:10:45.337Z,97862.13
2018-04-26T15:13:13.220Z,97872.41
2018-04-26T15:15:40.793Z,97868.39
2018-04-26T15:18:09.230Z,97869.58
2018-04-26T15:20:36.742Z,97868.13
2018-04-26T15:23:04.272Z,97868.02
2018-04-26T15:25:31.983Z,97869.27
2018-04-26T15:27:59.520Z,97862.33
2018-04-26T15:30:27.199Z,97863.16
2018-04-26T15:32:54.749Z,97865.88
2018-04-26T15:35:22.816Z,97855.25
2018-04-26T15:37:50.348Z,97860.86
2018-04-26T15:40:17.885Z,97867.02
2018-04-26T15:42:45.550Z,97861.24
2018-04-26T15:45:13.291Z,97859.75
2018-04-26T15:47:40.864Z,97854.87
2018-04-26T15:50:09.617Z,97856.23
2018-04-26T15:52:55.563Z,97851.83
2018-04-26T15:55:35.625Z,97850.22
2018-04-26T15:58:15.790Z,97851.87
2018-04-26T16:01:00.902Z,97854.38
2018-04-26T16:03:41.065Z,97867.30
2018-04-26T16:06:32.342Z,97866.68
2018-04-26T16:09:11.729Z,97853.19
2018-04-26T16:11:51.576Z,97863.09
2018-04-26T16:14:34.619Z,97858.38
2018-04-26T16:17:32.341Z,97857.66
2018-04-26T16:20:19.564Z,97868.38
2018-04-26T16:23:04.556Z,97863.77
2018-04-26T16:25:45.565Z,97861.64
2018-04-26T16:28:30.534Z,97865.48
2018-04-26T16:31:22.568Z,97861.02
2018-04-26T16:34:06.873Z,97864.28
2018-04-26T16:36:46.168Z,97868.56
2018-04-26T16:39:16.391Z,97869.37
2018-04-26T16:41:43.867Z,97870.77
2018-04-26T16:44:11.469Z,97871.47
2018-04-26T16:46:38.957Z,97875.04
2018-04-26T16:49:06.908Z,97879.11
2018-04-26T16:51:34.312Z,97876.39
2018-04-26T16:54:01.889Z,97868.38
2018-04-26T16:56:29.375Z,97866.37
2018-04-26T16:58:56.992Z,97866.53
2018-04-26T17:01:25.412Z,97862.83
2018-04-26T17:03:52.919Z,97850.94
2018-04-26T17:06:20.559Z,97855.97
2018-04-26T17:08:48.084Z,97864.30
2018-04-26T17:11:17.015Z,97868.84
2018-04-26T17:13:44.543Z,97867.35
2018-04-26T17:16:12.963Z,97861.98
2018-04-26T17:18:40.803Z,97860.78
2018-04-26T17:21:09.509Z,97858.51
2018-04-26T17:23:38.109Z,97862.48
2018-04-26T17:26:06.485Z,97854.58
2018-04-26T17:28:34.004Z,97864.22
2018-04-26T17:31:01.529Z,97863.30
2018-04-26T17:33:29.020Z,97866.20
2018-04-26T17:35:56.649Z,97877.45
2018-04-26T17:38:24.117Z,97870.58
2018-04-26T17:40:52.028Z,97876.02
2018-04-26T17:43:19.642Z,97874.39
2018-04-26T17:45:47.426Z,97870.95
2018-04-26T17:48:16.780Z,97877.98
2018-04-26T17:50:45.871Z,97875.34
2018-04-26T17:53:13.980Z,97874.89
2018-04-26T17:55:42.183Z,97886.91
2018-04-26T17:58:12.493Z,97885.23
2018-04-26T18:00:39.944Z,97887.77
2018-04-26T18:03:07.475Z,97889.69
2018-04-26T18:05:35.842Z,97887.13
2018-04-26T18:08:07.581Z,97887.20
2018-04-26T18:10:35.827Z,97885.67
2018-04-26T18:13:03.800Z,97891.02
2018-04-26T18:15:31.466Z,97894.03
2018-04-26T18:17:59.786Z,97891.23
2018-04-26T18:20:27.353Z,97893.20
2018-04-26T18:22:54.868Z,97895.05
2018-04-26T18:25:23.560Z,97902.31
2018-04-26T18:27:51.245Z,97900.84
2018-04-26T18:30:21.199Z,97903.76
2018-04-26T18:32:48.732Z,97903.22
2018-04-26T18:35:16.239Z,97907.95
2018-04-26T18:37:44.383Z,97903.44
2018-04-26T18:40:11.869Z,97916.73
2018-04-26T18:42:39.398Z,97914.09
2018-04-26T18:45:06.848Z,97919.10
2018-04-26T18:47:34.372Z,97908.59
2018-04-26T18:50:02.622Z,97908.80
2018-04-26T18:52:31.151Z,97923.80
2018-04-26T18:55:00.715Z,97930.58
2018-04-26T18:57:28.238Z,97926.27
2018-04-26T18:59:55.680Z,97935.98
2018-04-26T19:02:24.060Z,97940.33
2018-04-26T19:04:53.114Z,97932.76
2018-04-26T19:07:20.904Z,97944.73
2018-04-26T19:09:48.514Z,97950.14
2018-04-26T19:12:16.473Z,97948.52
2018-04-26T19:14:44.108Z,97959.95
2018-04-26T19:17:11.928Z,97960.66
2018-04-26T19:19:47.845Z,97959.88
2018-04-26T19:22:15.885Z,97962.13
2018-04-26T19:24:43.451Z,97975.17
2018-04-26T19:27:11.113Z,97976.92
2018-04-26T19:29:38.671Z,97973.91
2018-04-26T19:32:06.180Z,97979.48
2018-04-26T19:34:35.180Z,97978.92
2018-04-26T19:37:02.992Z,97978.42
2018-04-26T19:39:31.620Z,97978.42
2018-04-26T19:41:59.077Z,97986.94
2018-04-26T19:44:27.186Z,97987.34
2018-04-26T19:46:56.453Z,97985.03
2018-04-26T19:49:27.730Z,97983.19
2018-04-26T19:51:55.236Z,97983.39
2018-04-26T19:54:22.812Z,97986.50
2018-04-26T19:56:50.361Z,97984.09
2018-04-26T19:59:18.966Z,97981.20
2018-04-26T20:01:47.448Z,97980.86
2018-04-26T20:04:18.781Z,97979.59
2018-04-26T20:06:47.064Z,97970.43
2018-04-26T20:09:14.685Z,97967.48
2018-04-26T20:11:42.312Z,97969.44
2018-04-26T20:14:09.766Z,97964.52
2018-04-26T20:16:37.298Z,97968.19
2018-04-26T20:19:05.547Z,97968.64
2018-04-26T20:21:33.013Z,97968.41
2018-04-26T20:24:00.594Z,97971.90
2018-04-26T20:26:28.027Z,97962.95
2018-04-26T20:28:55.709Z,97959.55
2018-04-26T20:31:23.378Z,97962.55
2018-04-26T20:33:50.989Z,97966.16
2018-04-26T20:36:18.559Z,97962.41
2018-04-26T20:38:46.467Z,97964.60
2018-04-26T20:41:13.929Z,97962.91
2018-04-26T20:43:41.404Z,97967.16
2018-04-26T20:46:08.884Z,97969.97
2018-04-26T20:48:39.798Z,97969.64
2018-04-26T20:51:07.230Z,97965.05
2018-04-26T20:53:34.681Z,97966.05
2018-04-26T20:56:02.279Z,97970.45
2018-04-26T20:58:29.830Z,97965.87
2018-04-26T21:00:57.408Z,97964.67
2018-04-26T21:03:24.842Z,97962.32
2018-04-26T21:05:52.311Z,97956.72
2018-04-26T21:08:19.856Z,97957.56
2018-04-26T21:10:47.376Z,97959.02
2018-04-26T21:13:14.822Z,97953.35
2018-04-26T21:15:42.290Z,97955.57
2018-04-26T21:18:09.991Z,97954.44
2018-04-26T21:20:37.493Z,97954.31
2018-04-26T21:23:04.934Z,97955.27
2018-04-26T21:25:32.382Z,97943.56
2018-04-26T21:27:59.852Z,97950.46
2018-04-26T21:30:27.341Z,97951.41
2018-04-26T21:32:54.817Z,97956.38
2018-04-26T21:35:22.250Z,97954.16
2018-04-26T21:37:49.806Z,97951.11
2018-04-26T21:40:17.719Z,97942.41
2018-04-26T21:42:45.180Z,97943.61
2018-04-26T21:45:12.693Z,97946.36
2018-04-26T21:47:40.199Z,97948.92
2018-04-26T21:50:13.184Z,97956.48
2018-04-26T21:52:46.258Z,97946.24
2018-04-26T21:55:19.419Z,97946.64
2018-04-26T21:57:52.508Z,97946.06
2018-04-26T22:00:25.630Z,97948.84
2018-04-26T22:02:52.499Z,97942.09
2018-04-26T22:05:22.637Z,97949.02
2018-04-26T22:07:50.116Z,97941.63
2018-04-26T22:10:17.576Z,97940.17
2018-04-26T22:12:45.007Z,97935.42
2018-04-26T22:15:12.477Z,97931.12
2018-04-26T22:17:39.921Z,97933.45
2018-04-26T22:20:07.485Z,97930.03
2018-04-26T22:22:35.072Z,97934.17
2018-04-26T22:25:02.650Z,97930.05
2018-04-26T22:27:30.302Z,97930.09
2018-04-26T22:29:57.835Z,97932.27
2018-04-26T22:32:25.319Z,97927.49
2018-04-26T22:34:53.406Z,97936.05
2018-04-26T22:37:20.857Z,97925.55
2018-04-26T22:39:48.365Z,97923.80
2018-04-26T22:42:15.844Z,97925.41
2018-04-26T22:44:43.325Z,97929.66
2018-04-26T22:47:10.825Z,97925.50
2018-04-26T22:49:38.319Z,97927.74
2018-04-26T22:52:05.808Z,97924.91
2018-04-26T22:54:33.240Z,97927.11
2018-04-26T22:57:00.730Z,97923.02
2018-04-26T22:59:28.221Z,97917.95
2018-04-26T23:01:55.728Z,97913.16
2018-04-26T23:04:23.380Z,97915.22
2018-04-26T23:06:50.890Z,97912.19
2018-04-26T23:09:18.727Z,97911.92
2018-04-26T23:11:46.171Z,97908.17
2018-04-26T23:14:13.645Z,97907.00
2018-04-26T23:16:41.079Z,97907.16
2018-04-26T23:19:08.706Z,97902.20
2018-04-26T23:21:36.222Z,97910.99
2018-04-26T23:24:03.919Z,97902.20
2018-04-26T23:26:31.444Z,97893.39
2018-04-26T23:28:59.125Z,97901.12
2018-04-26T23:31:26.693Z,97902.18
2018-04-26T23:33:54.326Z,97897.63
2018-04-26T23:36:21.769Z,97901.59
2018-04-26T23:38:49.210Z,97897.59
2018-04-26T23:41:16.751Z,97898.00
2018-04-26T23:43:44.448Z,97896.75
2018-04-26T23:46:11.957Z,97897.13
2018-04-26T23:48:39.410Z,97892.06
2018-04-26T23:51:10.679Z,97888.71
2018-04-26T23:53:38.106Z,97885.88
2018-04-26T23:56:05.628Z,97881.75
2018-04-26T23:58:33.065Z,97880.16
